createdAt,value
2023-01-28T00:01:31.557Z,6.15
2023-01-28T00:03:59.290Z,6.95
2023-01-28T00:06:28.377Z,6.95
2023-01-28T00:08:56.281Z,7.05
2023-01-28T00:11:24.219Z,6.20
2023-01-28T00:13:52.877Z,5.70
2023-01-28T00:16:20.735Z,6.50
2023-01-28T00:18:48.367Z,5.53
2023-01-28T00:21:17.321Z,6.53
2023-01-28T00:23:51.666Z,6.00
2023-01-28T00:26:19.908Z,6.70
2023-01-28T00:28:48.240Z,6.75
2023-01-28T00:31:18.637Z,6.75
2023-01-28T00:33:47.711Z,7.00
2023-01-28T00:36:16.119Z,6.70
2023-01-28T00:38:44.308Z,7.13
2023-01-28T00:41:17.808Z,7.50
2023-01-28T00:43:46.074Z,8.00
2023-01-28T00:46:14.774Z,7.35
2023-01-28T00:48:43.981Z,8.75
2023-01-28T00:51:15.338Z,8.95
2023-01-28T00:53:43.473Z,8.30
2023-01-28T00:56:16.887Z,9.35
2023-01-28T00:58:44.753Z,9.18
2023-01-28T01:01:15.424Z,7.78
2023-01-28T01:03:44.038Z,8.38
2023-01-28T01:06:12.640Z,8.15
2023-01-28T01:08:43.080Z,7.95
2023-01-28T01:11:12.418Z,7.80
2023-01-28T01:13:41.784Z,8.23
2023-01-28T01:16:12.103Z,8.30
2023-01-28T01:18:41.893Z,9.52
2023-01-28T01:21:12.994Z,9.68
2023-01-28T01:23:41.868Z,9.23
2023-01-28T01:26:10.025Z,9.82
2023-01-28T01:28:38.148Z,9.77
2023-01-28T01:31:09.307Z,9.10
2023-01-28T01:33:39.955Z,10.73
2023-01-28T01:36:10.028Z,9.60
2023-01-28T01:38:37.922Z,10.60
2023-01-28T01:41:06.858Z,10.38
2023-01-28T01:43:49.113Z,9.27
2023-01-28T01:46:22.163Z,9.90
2023-01-28T01:48:50.653Z,10.93
2023-01-28T01:51:22.747Z,10.45
2023-01-28T01:53:54.175Z,10.07
2023-01-28T01:56:26.575Z,11.32
2023-01-28T01:58:56.900Z,10.80
2023-01-28T02:01:31.713Z,10.73
2023-01-28T02:04:07.010Z,10.10
2023-01-28T02:06:37.171Z,11.13
2023-01-28T02:09:08.349Z,11.32
2023-01-28T02:11:36.126Z,11.85
2023-01-28T02:14:07.544Z,11.43
2023-01-28T02:16:36.701Z,12.88
2023-01-28T02:19:04.543Z,12.70
2023-01-28T02:22:04.977Z,14.40
2023-01-28T02:24:53.042Z,12.73
2023-01-28T02:27:28.360Z,13.65
2023-01-28T02:30:03.203Z,13.23
2023-01-28T02:32:37.548Z,13.55
2023-01-28T02:35:11.628Z,13.80
2023-01-28T02:37:41.873Z,13.38
2023-01-28T02:40:14.453Z,13.82
2023-01-28T02:42:42.476Z,14.32
2023-01-28T02:45:21.413Z,14.35
2023-01-28T02:48:00.102Z,15.52
2023-01-28T02:50:40.754Z,15.38
2023-01-28T02:53:38.834Z,14.02
2023-01-28T02:56:18.826Z,13.00
2023-01-28T02:58:54.321Z,12.30
2023-01-28T03:01:27.532Z,11.98
2023-01-28T03:04:00.966Z,12.05
2023-01-28T03:06:35.643Z,11.40
2023-01-28T03:09:26.892Z,11.73
2023-01-28T03:12:16.662Z,12.15
2023-01-28T03:15:06.936Z,9.50
2023-01-28T03:18:01.369Z,9.73
2023-01-28T03:20:52.660Z,10.05
2023-01-28T03:23:46.549Z,8.88
2023-01-28T03:26:34.385Z,8.35
2023-01-28T03:29:27.282Z,9.30
2023-01-28T03:32:14.877Z,9.10
2023-01-28T03:35:02.765Z,8.52
2023-01-28T03:37:31.965Z,8.35
2023-01-28T03:40:12.009Z,8.52
2023-01-28T03:42:39.699Z,9.70
2023-01-28T03:45:29.547Z,9.68
2023-01-28T03:47:57.301Z,7.95
2023-01-28T03:50:26.669Z,7.30
2023-01-28T03:53:14.915Z,9.15
2023-01-28T03:55:50.030Z,8.60
2023-01-28T03:58:18.749Z,10.70
2023-01-28T04:00:47.025Z,9.85
2023-01-28T04:03:17.030Z,10.13
2023-01-28T04:06:08.311Z,11.32
2023-01-28T04:09:08.293Z,12.40
2023-01-28T04:11:57.978Z,12.45
2023-01-28T04:14:31.593Z,12.48
2023-01-28T04:17:12.468Z,13.15
2023-01-28T04:19:40.962Z,13.20
2023-01-28T04:22:12.481Z,13.30
2023-01-28T04:24:41.645Z,13.18
2023-01-28T04:27:09.909Z,13.15
2023-01-28T04:29:37.611Z,11.35
2023-01-28T04:32:33.278Z,11.68
2023-01-28T04:35:09.639Z,12.77
2023-01-28T04:37:51.027Z,10.75
2023-01-28T04:40:30.227Z,11.45
2023-01-28T04:43:02.931Z,10.90
2023-01-28T04:45:51.996Z,12.07
2023-01-28T04:48:42.756Z,10.63
2023-01-28T04:51:29.030Z,10.63
2023-01-28T04:54:21.136Z,10.60
2023-01-28T04:56:48.803Z,11.15
2023-01-28T04:59:16.646Z,11.02
2023-01-28T05:01:44.290Z,9.80
2023-01-28T05:04:12.267Z,11.38
2023-01-28T05:06:40.369Z,10.68
2023-01-28T05:09:12.490Z,10.68
2023-01-28T05:11:42.449Z,11.50
2023-01-28T05:14:10.176Z,11.43
2023-01-28T05:16:52.008Z,11.60
2023-01-28T05:19:20.652Z,11.10
2023-01-28T05:21:48.452Z,10.55
2023-01-28T05:24:29.054Z,11.82
2023-01-28T05:26:58.036Z,11.30
2023-01-28T05:29:25.841Z,11.00
2023-01-28T05:31:53.477Z,10.95
2023-01-28T05:34:21.351Z,11.65
2023-01-28T05:36:49.216Z,11.90
2023-01-28T05:39:39.727Z,12.38
2023-01-28T05:42:09.159Z,13.13
2023-01-28T05:44:42.036Z,13.50
2023-01-28T05:47:30.004Z,13.18
2023-01-28T05:50:05.994Z,13.25
2023-01-28T05:53:06.846Z,15.23
2023-01-28T05:55:36.114Z,16.23
2023-01-28T05:58:05.431Z,15.43
2023-01-28T06:00:33.352Z,14.27
2023-01-28T06:03:02.973Z,15.32
2023-01-28T06:05:31.581Z,16.02
2023-01-28T06:08:01.758Z,13.20
2023-01-28T06:10:29.976Z,15.18
2023-01-28T06:12:57.721Z,12.68
2023-01-28T06:15:38.354Z,13.85
2023-01-28T06:18:26.258Z,13.50
2023-01-28T06:20:54.834Z,15.07
2023-01-28T06:23:22.424Z,13.80
2023-01-28T06:25:54.676Z,15.30
2023-01-28T06:28:22.646Z,14.68
2023-01-28T06:30:52.806Z,15.35
2023-01-28T06:33:20.496Z,13.50
2023-01-28T06:35:48.558Z,16.02
2023-01-28T06:38:16.241Z,14.75
2023-01-28T06:40:43.855Z,14.70
2023-01-28T06:43:11.435Z,13.73
2023-01-28T06:45:39.000Z,13.50
2023-01-28T06:48:08.955Z,14.15
2023-01-28T06:50:36.667Z,13.07
2023-01-28T06:53:04.324Z,12.85
2023-01-28T06:55:31.913Z,13.65
2023-01-28T06:57:59.850Z,13.90
2023-01-28T07:00:27.525Z,13.18
2023-01-28T07:02:56.903Z,12.90
2023-01-28T07:05:26.161Z,12.70
2023-01-28T07:07:53.835Z,11.90
2023-01-28T07:10:21.469Z,12.48
2023-01-28T07:12:49.079Z,12.55
2023-01-28T07:15:16.788Z,12.98
2023-01-28T07:17:44.859Z,13.32
2023-01-28T07:20:15.809Z,12.65
2023-01-28T07:22:45.977Z,12.15
2023-01-28T07:25:15.175Z,13.25
2023-01-28T07:27:48.556Z,12.95
2023-01-28T07:30:16.894Z,12.23
2023-01-28T07:32:45.011Z,12.77
2023-01-28T07:35:12.798Z,12.98
2023-01-28T07:37:40.784Z,12.93
2023-01-28T07:40:11.707Z,17.02
2023-01-28T07:42:39.812Z,16.25
2023-01-28T07:45:08.658Z,16.15
2023-01-28T07:47:36.295Z,15.48
2023-01-28T07:50:04.145Z,15.98
2023-01-28T07:52:31.900Z,14.25
2023-01-28T07:54:59.557Z,14.13
2023-01-28T07:57:30.155Z,14.77
2023-01-28T07:59:58.293Z,13.38
2023-01-28T08:02:26.008Z,13.88
2023-01-28T08:04:54.098Z,14.15
2023-01-28T08:07:21.847Z,13.38
2023-01-28T08:09:49.479Z,13.98
2023-01-28T08:12:17.161Z,14.25
2023-01-28T08:14:46.147Z,16.02
2023-01-28T08:17:16.464Z,15.60
2023-01-28T08:19:44.142Z,15.50
2023-01-28T08:22:11.824Z,14.00
2023-01-28T08:24:39.480Z,14.70
2023-01-28T08:27:07.279Z,16.65
2023-01-28T08:29:34.923Z,17.20
2023-01-28T08:32:03.987Z,16.25
2023-01-28T08:34:31.825Z,16.38
2023-01-28T08:36:59.482Z,14.73
2023-01-28T08:39:27.222Z,13.52
2023-01-28T08:41:54.957Z,12.13
2023-01-28T08:44:22.621Z,14.30
2023-01-28T08:46:50.307Z,12.10
2023-01-28T08:49:19.870Z,12.35
2023-01-28T08:51:47.554Z,12.13
2023-01-28T08:54:15.714Z,14.15
2023-01-28T08:56:44.896Z,13.20
2023-01-28T08:59:13.019Z,15.57
2023-01-28T09:01:40.985Z,13.73
2023-01-28T09:04:08.775Z,12.65
2023-01-28T09:06:37.893Z,12.77
2023-01-28T09:09:05.728Z,14.00
2023-01-28T09:11:33.494Z,12.48
2023-01-28T09:14:01.422Z,11.98
2023-01-28T09:16:29.100Z,12.23
2023-01-28T09:18:56.836Z,12.50
2023-01-28T09:21:24.673Z,12.65
2023-01-28T09:23:55.642Z,13.43
2023-01-28T09:26:23.427Z,13.15
2023-01-28T09:28:51.103Z,14.02
2023-01-28T09:31:19.004Z,13.85
2023-01-28T09:33:54.700Z,14.00
2023-01-28T09:36:22.335Z,14.00
2023-01-28T09:38:50.027Z,13.52
2023-01-28T09:41:32.302Z,13.30
2023-01-28T09:44:07.936Z,13.15
2023-01-28T09:46:38.447Z,12.75
2023-01-28T09:49:18.679Z,14.55
2023-01-28T09:51:51.622Z,14.65
2023-01-28T09:54:26.925Z,14.90
2023-01-28T09:57:02.568Z,14.65
2023-01-28T09:59:31.208Z,13.27
2023-01-28T10:02:04.082Z,14.85
2023-01-28T10:04:49.508Z,13.25
2023-01-28T10:07:33.038Z,13.20
2023-01-28T10:10:05.919Z,13.88
2023-01-28T10:12:50.751Z,13.43
2023-01-28T10:15:30.797Z,13.60
2023-01-28T10:18:16.015Z,11.27
2023-01-28T10:20:47.830Z,10.50
2023-01-28T10:23:22.330Z,12.25
2023-01-28T10:25:50.065Z,13.30
2023-01-28T10:28:24.057Z,13.20
2023-01-28T10:30:52.521Z,12.43
2023-01-28T10:33:25.803Z,12.35
2023-01-28T10:35:53.540Z,12.40
2023-01-28T10:38:24.413Z,12.25
2023-01-28T10:40:52.904Z,11.68
2023-01-28T10:43:25.476Z,12.00
2023-01-28T10:45:59.033Z,11.70
2023-01-28T10:48:31.157Z,13.38
2023-01-28T10:51:01.980Z,13.48
2023-01-28T10:53:40.693Z,13.60
2023-01-28T10:56:10.973Z,13.50
2023-01-28T10:58:51.501Z,13.27
2023-01-28T11:01:19.322Z,12.75
2023-01-28T11:03:56.644Z,11.68
2023-01-28T11:06:30.362Z,12.25
2023-01-28T11:09:00.510Z,13.25
2023-01-28T11:11:30.680Z,12.85
2023-01-28T11:14:01.169Z,11.07
2023-01-28T11:16:28.881Z,11.35
2023-01-28T11:19:04.099Z,12.40
2023-01-28T11:21:33.622Z,10.73
2023-01-28T11:24:03.698Z,12.13
2023-01-28T11:26:34.478Z,12.00
2023-01-28T11:29:04.059Z,12.43
2023-01-28T11:31:40.287Z,12.80
2023-01-28T11:34:08.127Z,11.68
2023-01-28T11:36:36.645Z,11.20
2023-01-28T11:39:17.987Z,12.18
2023-01-28T11:41:45.700Z,11.65
2023-01-28T11:44:18.775Z,12.55
2023-01-28T11:47:13.661Z,12.18
2023-01-28T11:49:56.241Z,13.85
2023-01-28T11:52:48.670Z,11.38
2023-01-28T11:55:29.071Z,13.70
2023-01-28T11:58:08.022Z,12.43
2023-01-28T12:00:42.357Z,12.82
2023-01-28T12:03:31.010Z,13.23
2023-01-28T12:06:13.944Z,12.73
2023-01-28T12:08:47.161Z,11.65
2023-01-28T12:11:42.621Z,11.27
2023-01-28T12:14:22.180Z,11.38
2023-01-28T12:17:01.434Z,12.45
2023-01-28T12:19:54.044Z,11.07
2023-01-28T12:22:41.267Z,12.60
2023-01-28T12:25:21.637Z,10.40
2023-01-28T12:27:57.118Z,12.50
2023-01-28T12:30:43.587Z,11.20
2023-01-28T12:33:49.976Z,12.18
2023-01-28T12:36:30.869Z,11.90
2023-01-28T12:39:08.167Z,11.43
2023-01-28T12:41:41.355Z,11.00
2023-01-28T12:44:13.215Z,10.20
2023-01-28T12:46:46.306Z,11.15
2023-01-28T12:49:22.831Z,10.35
2023-01-28T12:52:01.900Z,11.20
2023-01-28T12:54:36.753Z,11.85
2023-01-28T12:57:04.687Z,11.23
2023-01-28T12:59:40.383Z,11.35
2023-01-28T13:02:21.883Z,12.55
2023-01-28T13:04:56.166Z,10.13
2023-01-28T13:07:28.661Z,10.52
2023-01-28T13:10:05.217Z,11.93
2023-01-28T13:12:33.935Z,10.02
2023-01-28T13:15:02.246Z,10.43
2023-01-28T13:17:31.444Z,10.60
2023-01-28T13:20:01.093Z,10.00
2023-01-28T13:22:32.128Z,10.77
2023-01-28T13:25:19.616Z,10.93
2023-01-28T13:27:56.926Z,11.98
2023-01-28T13:30:27.355Z,10.32
2023-01-28T13:33:00.560Z,11.75
2023-01-28T13:35:35.699Z,10.30
2023-01-28T13:38:15.893Z,11.38
2023-01-28T13:40:44.829Z,10.90
2023-01-28T13:43:37.959Z,10.10
2023-01-28T13:46:08.380Z,11.20
2023-01-28T13:48:42.988Z,12.05
2023-01-28T13:51:19.700Z,10.35
2023-01-28T13:53:54.497Z,11.63
2023-01-28T13:56:26.497Z,10.13
2023-01-28T13:59:19.961Z,11.85
2023-01-28T14:02:18.558Z,12.07
2023-01-28T14:05:02.201Z,12.18
2023-01-28T14:07:51.485Z,12.57
2023-01-28T14:10:34.702Z,12.55
2023-01-28T14:13:21.585Z,11.75
2023-01-28T14:15:59.815Z,12.40
2023-01-28T14:18:30.650Z,12.85
2023-01-28T14:21:02.518Z,12.63
2023-01-28T14:23:32.387Z,12.00
2023-01-28T14:26:12.661Z,12.50
2023-01-28T14:28:49.920Z,11.55
2023-01-28T14:31:24.383Z,12.23
2023-01-28T14:33:52.265Z,12.38
2023-01-28T14:36:19.965Z,12.82
2023-01-28T14:38:49.627Z,12.35
2023-01-28T14:41:24.540Z,12.80
2023-01-28T14:43:53.761Z,12.95
2023-01-28T14:46:36.116Z,14.52
2023-01-28T14:49:20.504Z,12.57
2023-01-28T14:52:02.951Z,12.80
2023-01-28T14:54:45.571Z,13.43
2023-01-28T14:57:34.209Z,13.45
2023-01-28T15:00:02.135Z,13.55
2023-01-28T15:02:31.976Z,12.70
2023-01-28T15:05:10.065Z,12.65
2023-01-28T15:07:37.903Z,12.80
2023-01-28T15:10:15.771Z,13.88
2023-01-28T15:12:48.979Z,12.95
2023-01-28T15:15:24.666Z,12.63
2023-01-28T15:17:53.683Z,13.02
2023-01-28T15:20:24.663Z,13.63
2023-01-28T15:22:53.988Z,11.13
2023-01-28T15:25:25.119Z,14.30
2023-01-28T15:27:55.820Z,12.85
2023-01-28T15:30:26.607Z,13.85
2023-01-28T15:33:06.665Z,13.20
2023-01-28T15:35:36.849Z,14.50
2023-01-28T15:38:05.521Z,12.73
2023-01-28T15:40:42.982Z,13.30
2023-01-28T15:43:18.864Z,12.85
2023-01-28T15:45:48.581Z,13.27
2023-01-28T15:48:16.796Z,14.23
2023-01-28T15:50:45.995Z,14.10
2023-01-28T15:53:15.526Z,13.68
2023-01-28T15:55:46.148Z,15.52
2023-01-28T15:58:19.334Z,15.18
2023-01-28T16:00:47.358Z,14.02
2023-01-28T16:03:21.105Z,14.48
2023-01-28T16:05:59.225Z,14.00
2023-01-28T16:08:31.257Z,16.25
2023-01-28T16:11:00.592Z,18.00
2023-01-28T16:13:32.563Z,18.42
2023-01-28T16:16:02.140Z,19.35
2023-01-28T16:18:40.738Z,16.85
2023-01-28T16:21:12.878Z,17.20
2023-01-28T16:23:41.024Z,17.58
2023-01-28T16:26:22.952Z,17.88
2023-01-28T16:28:50.665Z,17.27
2023-01-28T16:31:18.989Z,17.92
2023-01-28T16:33:46.893Z,18.50
2023-01-28T16:36:15.664Z,18.42
2023-01-28T16:38:43.270Z,18.80
2023-01-28T16:41:16.488Z,18.73
2023-01-28T16:43:44.113Z,17.15
2023-01-28T16:46:13.593Z,17.33
2023-01-28T16:48:41.270Z,18.05
2023-01-28T16:51:16.911Z,20.73
2023-01-28T16:53:45.880Z,20.40
2023-01-28T16:56:30.703Z,18.73
2023-01-28T16:59:05.214Z,19.45
2023-01-28T17:01:32.865Z,19.00
2023-01-28T17:04:00.613Z,17.13
2023-01-28T17:06:28.414Z,17.55
2023-01-28T17:08:56.115Z,18.80
2023-01-28T17:11:29.285Z,19.10
2023-01-28T17:13:56.911Z,18.45
2023-01-28T17:16:24.768Z,18.27
2023-01-28T17:18:52.923Z,17.95
2023-01-28T17:21:20.842Z,18.40
2023-01-28T17:23:48.674Z,18.23
2023-01-28T17:26:17.520Z,18.48
2023-01-28T17:28:52.116Z,19.02
2023-01-28T17:31:19.927Z,19.63
2023-01-28T17:33:47.698Z,19.35
2023-01-28T17:36:15.458Z,21.20
2023-01-28T17:38:45.522Z,21.15
2023-01-28T17:41:14.530Z,20.83
2023-01-28T17:43:42.208Z,21.42
2023-01-28T17:46:16.317Z,21.05
2023-01-28T17:48:45.682Z,23.15
2023-01-28T17:51:14.040Z,21.42
2023-01-28T17:53:46.348Z,25.38
2023-01-28T17:56:18.589Z,28.45
2023-01-28T17:58:50.651Z,27.33
2023-01-28T18:01:19.952Z,28.90
2023-01-28T18:03:47.740Z,26.45
2023-01-28T18:06:15.513Z,24.27
2023-01-28T18:08:43.716Z,23.77
2023-01-28T18:11:14.222Z,26.05
2023-01-28T18:13:43.226Z,27.85
2023-01-28T18:16:15.174Z,26.17
2023-01-28T18:18:44.891Z,27.83
2023-01-28T18:21:22.868Z,28.20
2023-01-28T18:23:53.049Z,28.05
2023-01-28T18:26:20.880Z,26.45
2023-01-28T18:28:49.278Z,29.50
2023-01-28T18:31:17.110Z,28.77
2023-01-28T18:33:47.442Z,26.45
2023-01-28T18:36:15.544Z,27.10
2023-01-28T18:38:43.314Z,32.85
2023-01-28T18:41:11.037Z,31.45
2023-01-28T18:43:38.837Z,31.88
2023-01-28T18:46:12.141Z,28.60
2023-01-28T18:48:40.603Z,29.02
2023-01-28T18:51:28.466Z,27.25
2023-01-28T18:53:59.162Z,27.52
2023-01-28T18:56:27.524Z,29.23
2023-01-28T18:58:59.489Z,27.42
2023-01-28T19:01:27.930Z,31.77
2023-01-28T19:03:56.568Z,29.90
2023-01-28T19:06:26.696Z,30.45
2023-01-28T19:08:55.453Z,29.55
2023-01-28T19:11:24.238Z,29.55
2023-01-28T19:13:52.444Z,27.38
2023-01-28T19:16:20.967Z,30.13
2023-01-28T19:18:54.117Z,30.17
2023-01-28T19:21:22.294Z,27.65
2023-01-28T19:23:55.833Z,28.17
2023-01-28T19:26:24.209Z,29.55
2023-01-28T19:28:52.277Z,28.60
2023-01-28T19:31:21.831Z,28.52
2023-01-28T19:33:50.401Z,26.98
2023-01-28T19:36:18.068Z,28.10
2023-01-28T19:38:45.745Z,29.67
2023-01-28T19:41:16.924Z,30.75
2023-01-28T19:43:45.510Z,27.88
2023-01-28T19:46:15.968Z,30.33
2023-01-28T19:48:44.117Z,34.33
2023-01-28T19:51:14.141Z,32.22
2023-01-28T19:53:43.265Z,30.25
2023-01-28T19:56:13.015Z,31.20
2023-01-28T19:58:44.584Z,35.88
2023-01-28T20:01:14.211Z,34.17
2023-01-28T20:03:42.074Z,36.05
2023-01-28T20:06:12.630Z,31.45
2023-01-28T20:08:40.529Z,33.03
2023-01-28T20:11:10.069Z,34.40
2023-01-28T20:13:39.198Z,31.08
2023-01-28T20:16:10.334Z,31.17
2023-01-28T20:18:38.187Z,33.42
2023-01-28T20:21:06.100Z,35.83
2023-01-28T20:23:34.009Z,35.65
2023-01-28T20:26:02.001Z,33.58
2023-01-28T20:28:29.782Z,34.13
2023-01-28T20:30:57.658Z,33.80
2023-01-28T20:33:26.872Z,31.42
2023-01-28T20:36:01.511Z,32.88
2023-01-28T20:38:29.230Z,33.47
2023-01-28T20:40:57.031Z,32.58
2023-01-28T20:43:24.829Z,32.67
2023-01-28T20:45:52.523Z,35.72
2023-01-28T20:48:20.282Z,33.53
2023-01-28T20:50:49.290Z,34.85
2023-01-28T20:53:17.127Z,38.25
2023-01-28T20:55:45.171Z,37.58
2023-01-28T20:58:13.234Z,36.05
2023-01-28T21:00:40.876Z,38.42
2023-01-28T21:03:08.523Z,33.00
2023-01-28T21:05:36.180Z,34.65
2023-01-28T21:08:05.264Z,33.00
2023-01-28T21:10:32.971Z,32.80
2023-01-28T21:13:00.669Z,34.28
2023-01-28T21:15:28.394Z,33.42
2023-01-28T21:17:56.093Z,33.70
2023-01-28T21:20:23.797Z,32.83
2023-01-28T21:22:51.813Z,33.63
2023-01-28T21:25:21.717Z,33.75
2023-01-28T21:27:50.016Z,31.88
2023-01-28T21:30:19.658Z,33.78
2023-01-28T21:32:47.315Z,31.70
2023-01-28T21:35:15.061Z,31.42
2023-01-28T21:37:46.629Z,32.33
2023-01-28T21:40:14.999Z,35.10
2023-01-28T21:42:44.285Z,30.77
2023-01-28T21:45:13.075Z,32.60
2023-01-28T21:47:40.767Z,31.35
2023-01-28T21:50:09.573Z,33.25
2023-01-28T21:52:37.339Z,37.17
2023-01-28T21:55:05.593Z,36.67
2023-01-28T21:57:33.286Z,37.25
2023-01-28T22:00:01.600Z,34.97
2023-01-28T22:02:39.381Z,35.45
2023-01-28T22:05:07.820Z,34.35
2023-01-28T22:07:35.595Z,31.02
2023-01-28T22:10:03.416Z,31.83
2023-01-28T22:12:31.159Z,32.10
2023-01-28T22:14:59.080Z,33.33
2023-01-28T22:17:28.262Z,32.00
2023-01-28T22:19:55.943Z,32.42
2023-01-28T22:22:23.658Z,32.67
2023-01-28T22:24:51.686Z,35.33
2023-01-28T22:27:19.355Z,33.15
2023-01-28T22:29:47.072Z,32.55
2023-01-28T22:32:14.706Z,32.50
2023-01-28T22:34:46.023Z,31.88
2023-01-28T22:37:15.080Z,31.63
2023-01-28T22:39:42.796Z,33.92
2023-01-28T22:42:10.442Z,31.20
2023-01-28T22:44:38.103Z,35.00
2023-01-28T22:47:05.819Z,32.95
2023-01-28T22:49:33.465Z,33.78
2023-01-28T22:52:02.478Z,35.53
2023-01-28T22:54:30.141Z,33.38
2023-01-28T22:56:57.777Z,33.78
2023-01-28T22:59:25.468Z,34.53
2023-01-28T23:01:53.260Z,32.88
2023-01-28T23:04:20.937Z,32.70
2023-01-28T23:06:48.851Z,33.75
2023-01-28T23:09:17.838Z,36.67
2023-01-28T23:11:45.540Z,31.23
2023-01-28T23:14:30.562Z,35.53
2023-01-28T23:17:15.735Z,33.85
2023-01-28T23:20:00.873Z,33.92
2023-01-28T23:22:49.453Z,34.05
2023-01-28T23:25:19.372Z,37.38
2023-01-28T23:27:47.084Z,32.13
2023-01-28T23:30:15.793Z,33.67
2023-01-28T23:32:46.818Z,35.50
2023-01-28T23:35:14.839Z,34.72
2023-01-28T23:37:42.819Z,32.00
2023-01-28T23:40:12.067Z,32.58
2023-01-28T23:42:41.671Z,31.83
2023-01-28T23:45:10.924Z,35.03
2023-01-28T23:47:38.577Z,33.63
2023-01-28T23:50:06.886Z,35.92
2023-01-28T23:52:34.572Z,33.80
2023-01-28T23:55:02.282Z,35.95
2023-01-28T23:57:29.963Z,34.00
2023-01-28T23:59:59.185Z,33.95
